Bonao, Dominican Republic
Current Conditions -  °F | °C
As of 3:00 PM on Friday 21 Nov 2014 (Local Time) from MDST Reporting Station
Few Clouds Few Clouds  
Wind Chill: 86°   Ceiling: Unl
Heat Index: 93°   Visibility: 6mi
Dew Point: 73°   Wind: 15mph
Humidity: 66%   Direction: 90°E
Pressure: 29.94"   Gusts: NA
Location:  18.95°N, 70.41°W
Report Text: MDST 211900Z 09013KT 9999 FEW026 30/23 Q1014
Loading
Personal Weather Stations






























Interactive Weather Map New forecast layout! Learn more

10-Day Weather Forecast

Advertisements
Track Severe Weather on mobile